Messwerte Harlingen

Temperatur

Temperatur
°C
1624453200 8.00 8.00
1624456800 9.00 9.00 24
1624460400 10.00 10.00 24
1624464000 11.00 11.00 26
1624467600 12.00 12.00 27
1624471200 13.00 13.00 29
1624474800 14.00 14.00 30
1624478400 15.00 15.00 32
1624482000 16.00 16.00 29
1624485600 17.00 17.00 30
1624489200 18.00 18.00 29
1624492800 19.00 19.00 29
1624496400 20.00 20.00 28
1624500000 21.00 21.00 27
1624503600 22.00 22.00 27
1624507200 23.00 23.00 27
1624510800 0.00 0.00 26
1624514400 1.00 1.00 26
1624518000 2.00 2.00 25
1624521600 3.00 3.00
1624525200 4.00 4.00 26
1624528800 5.00 5.00 27
1624532400 6.00 6.00 27
1624536000 7.00 7.00

Wir danken unserem Partner:

Aktuellste Messwerte

Wettercharakter
Wetter: Nebel
Temperatur
27 °C
Feuchtigkeit
100 %
Wind
15 km/hWindrichtung: Südost
Luftdruck
1014 hPa
Messzeit: 24. Juni 2021, 7.00Datenquelle: METAR

Weitere Messstationen in der Nähe

Messstation Temperatur Entfernung
Port Isabel 27 °C 31 km
Brownsville 28 °C 41 km
Matamoros - 53 km
Edinburg 27 °C 53 km
McAllen 27 °C 58 km
Reynosa 26 °C 62 km
Falfurrias 25 °C 118 km

Wind

Windrichtung Böen Mittelwind
° km/h km/h
1624453200 8.00 7.00 - 8.00
1624456800 9.00 8.00 - 9.00 120° 45 30
1624460400 10.00 9.00 - 10.00 140° 20
1624464000 11.00 10.00 - 11.00 100° 15
1624467600 12.00 11.00 - 12.00 160° 20
1624471200 13.00 12.00 - 13.00 180° 20
1624474800 14.00 13.00 - 14.00 170° 20
1624478400 15.00 14.00 - 15.00 130° 20
1624482000 16.00 15.00 - 16.00 100° 40 30
1624485600 17.00 16.00 - 17.00 100° 25
1624489200 18.00 17.00 - 18.00 110° 25
1624492800 19.00 18.00 - 19.00 110° 25
1624496400 20.00 19.00 - 20.00 110° 20
1624500000 21.00 20.00 - 21.00 130° 15
1624503600 22.00 21.00 - 22.00 130° 15
1624507200 23.00 22.00 - 23.00 140° 10
1624510800 0.00 23.00 - 0.00 170° 5
1624514400 1.00 0.00 - 1.00 140° 5
1624518000 2.00 1.00 - 2.00 110° 5
1624521600 3.00 2.00 - 3.00
1624525200 4.00 3.00 - 4.00 110° 10
1624528800 5.00 4.00 - 5.00 120° 10
1624532400 6.00 5.00 - 6.00 140° 10
1624536000 7.00 6.00 - 7.00

Ihre Wetterstation

Fehlt Ihre Wetterstation auf unserem Portal?

Schreiben Sie an network@meteonews.ch

Klima

Wann ist es am wärmsten? Wann regnet es am wenigsten? Unsere Klimadaten geben Auskunft.